sensor_id;sensor_type;location;lat;lon;timestamp;P1;P2;P0
68841;PMS5003;55849;48.482;2.332;2023-04-25T08:02:49;30.25;26.75;17.50
68841;PMS5003;55849;48.482;2.332;2023-04-25T08:05:51;54.50;45.75;29.00
68841;PMS5003;55849;48.482;2.332;2023-04-25T08:08:53;35.25;32.25;20.75
68841;PMS5003;55849;48.482;2.332;2023-04-25T08:11:55;33.25;26.25;18.50
68841;PMS5003;55849;48.482;2.332;2023-04-25T08:14:56;38.50;33.75;22.00
68841;PMS5003;55849;48.482;2.332;2023-04-25T08:17:59;32.75;29.50;18.00
68841;PMS5003;55849;48.482;2.332;2023-04-25T08:21:01;30.25;29.00;18.50
68841;PMS5003;55849;48.482;2.332;2023-04-25T08:24:03;21.25;19.25;12.50
68841;PMS5003;55849;48.482;2.332;2023-04-25T08:27:04;22.75;19.75;14.00
68841;PMS5003;55849;48.482;2.332;2023-04-25T08:30:08;17.00;14.50;8.75
68841;PMS5003;55849;48.482;2.332;2023-04-25T08:33:11;13.50;10.50;7.00
68841;PMS5003;55849;48.482;2.332;2023-04-25T08:36:12;20.25;18.50;12.25
68841;PMS5003;55849;48.482;2.332;2023-04-25T08:39:14;27.25;20.25;12.50
68841;PMS5003;55849;48.482;2.332;2023-04-25T08:42:16;20.00;17.00;10.00
68841;PMS5003;55849;48.482;2.332;2023-04-25T08:45:18;12.00;12.00;7.75
68841;PMS5003;55849;48.482;2.332;2023-04-25T08:48:22;11.00;9.00;6.00
68841;PMS5003;55849;48.482;2.332;2023-04-25T08:51:27;14.25;12.75;7.00
68841;PMS5003;55849;48.482;2.332;2023-04-25T08:54:33;53.00;39.75;24.00
68841;PMS5003;55849;48.482;2.332;2023-04-25T08:57:35;18.75;15.00;9.25
68841;PMS5003;55849;48.482;2.332;2023-04-25T09:00:38;16.25;15.00;11.25
68841;PMS5003;55849;48.482;2.332;2023-04-25T09:03:41;11.25;9.75;7.75
68841;PMS5003;55849;48.482;2.332;2023-04-25T09:06:43;19.00;16.25;9.00
68841;PMS5003;55849;48.482;2.332;2023-04-25T09:09:45;13.25;10.75;7.25
68841;PMS5003;55849;48.482;2.332;2023-04-25T09:13:00;16.50;13.75;9.00
68841;PMS5003;55849;48.482;2.332;2023-04-25T09:16:03;14.75;12.25;9.00
68841;PMS5003;55849;48.482;2.332;2023-04-25T09:19:06;34.50;29.25;18.50
68841;PMS5003;55849;48.482;2.332;2023-04-25T09:22:08;22.50;20.75;13.00
68841;PMS5003;55849;48.482;2.332;2023-04-25T09:25:10;28.75;26.75;15.50
68841;PMS5003;55849;48.482;2.332;2023-04-25T09:28:14;42.75;32.25;18.25
68841;PMS5003;55849;48.482;2.332;2023-04-25T09:31:21;18.25;14.50;9.00
68841;PMS5003;55849;48.482;2.332;2023-04-25T09:34:26;18.00;16.25;10.00
68841;PMS5003;55849;48.482;2.332;2023-04-25T09:37:28;35.00;30.50;20.75
68841;PMS5003;55849;48.482;2.332;2023-04-25T09:40:30;13.75;12.50;8.00
68841;PMS5003;55849;48.482;2.332;2023-04-25T09:43:32;21.25;17.75;9.50
68841;PMS5003;55849;48.482;2.332;2023-04-25T09:46:34;21.50;20.50;11.00
68841;PMS5003;55849;48.482;2.332;2023-04-25T09:49:39;34.75;28.50;20.25
68841;PMS5003;55849;48.482;2.332;2023-04-25T09:52:43;19.00;17.75;11.00
68841;PMS5003;55849;48.482;2.332;2023-04-25T09:55:44;13.50;11.75;9.00
68841;PMS5003;55849;48.482;2.332;2023-04-25T09:58:47;12.50;10.75;7.00
68841;PMS5003;55849;48.482;2.332;2023-04-25T10:01:51;20.25;16.50;10.25
68841;PMS5003;55849;48.482;2.332;2023-04-25T10:04:56;16.25;14.50;9.75
68841;PMS5003;55849;48.482;2.332;2023-04-25T10:07:58;11.50;11.25;7.75
68841;PMS5003;55849;48.482;2.332;2023-04-25T10:11:03;15.50;14.00;8.50
68841;PMS5003;55849;48.482;2.332;2023-04-25T10:14:06;15.75;13.75;9.00
68841;PMS5003;55849;48.482;2.332;2023-04-25T10:17:09;19.75;16.00;11.00
68841;PMS5003;55849;48.482;2.332;2023-04-25T10:20:13;15.25;14.00;8.25
68841;PMS5003;55849;48.482;2.332;2023-04-25T10:23:15;11.00;10.00;8.50
68841;PMS5003;55849;48.482;2.332;2023-04-25T10:26:17;12.75;12.00;10.00
68841;PMS5003;55849;48.482;2.332;2023-04-25T10:29:23;21.50;19.00;13.00
68841;PMS5003;55849;48.482;2.332;2023-04-25T10:32:25;27.75;24.00;17.25
68841;PMS5003;55849;48.482;2.332;2023-04-25T10:35:28;14.75;12.00;8.00
68841;PMS5003;55849;48.482;2.332;2023-04-25T10:38:31;13.50;11.50;8.75
68841;PMS5003;55849;48.482;2.332;2023-04-25T10:41:35;12.00;11.50;8.50
68841;PMS5003;55849;48.482;2.332;2023-04-25T10:45:00;12.50;11.00;8.00
68841;PMS5003;55849;48.482;2.332;2023-04-25T10:48:03;12.50;11.00;8.00
68841;PMS5003;55849;48.482;2.332;2023-04-25T10:51:10;14.25;14.00;9.00
68841;PMS5003;55849;48.482;2.332;2023-04-25T10:54:12;17.00;14.75;11.00
68841;PMS5003;55849;48.482;2.332;2023-04-25T10:57:26;17.00;14.00;9.00
68841;PMS5003;55849;48.482;2.332;2023-04-25T11:00:31;14.00;12.75;9.00
68841;PMS5003;55849;48.482;2.332;2023-04-25T11:03:40;9.50;8.50;7.50
68841;PMS5003;55849;48.482;2.332;2023-04-25T11:06:46;11.75;10.50;5.50
68841;PMS5003;55849;48.482;2.332;2023-04-25T11:10:01;13.75;12.75;9.50
68841;PMS5003;55849;48.482;2.332;2023-04-25T11:13:05;15.00;10.25;7.00
68841;PMS5003;55849;48.482;2.332;2023-04-25T11:16:06;13.50;10.25;7.00
68841;PMS5003;55849;48.482;2.332;2023-04-25T11:19:08;15.00;12.25;8.50
68841;PMS5003;55849;48.482;2.332;2023-04-25T11:22:11;15.25;12.25;7.50
68841;PMS5003;55849;48.482;2.332;2023-04-25T11:25:14;13.00;12.00;9.25
68841;PMS5003;55849;48.482;2.332;2023-04-25T11:28:20;15.75;12.25;8.00
68841;PMS5003;55849;48.482;2.332;2023-04-25T11:31:22;12.00;10.00;7.00
68841;PMS5003;55849;48.482;2.332;2023-04-25T11:34:25;16.00;11.00;8.00
68841;PMS5003;55849;48.482;2.332;2023-04-25T11:37:31;14.75;12.00;7.00
68841;PMS5003;55849;48.482;2.332;2023-04-25T11:40:35;14.75;13.00;8.00
68841;PMS5003;55849;48.482;2.332;2023-04-25T11:43:37;14.75;13.25;9.50
68841;PMS5003;55849;48.482;2.332;2023-04-25T11:46:38;13.00;12.25;8.25
68841;PMS5003;55849;48.482;2.332;2023-04-25T11:49:40;12.00;11.50;8.00
68841;PMS5003;55849;48.482;2.332;2023-04-25T11:52:43;13.25;12.50;8.00
68841;PMS5003;55849;48.482;2.332;2023-04-25T11:55:47;14.25;13.00;8.75
68841;PMS5003;55849;48.482;2.332;2023-04-25T11:58:59;14.00;12.50;7.75
68841;PMS5003;55849;48.482;2.332;2023-04-25T12:02:01;12.50;11.00;8.00
68841;PMS5003;55849;48.482;2.332;2023-04-25T12:05:05;12.75;12.00;7.00
68841;PMS5003;55849;48.482;2.332;2023-04-25T12:08:12;16.50;14.00;8.50
68841;PMS5003;55849;48.482;2.332;2023-04-25T12:11:20;15.50;13.75;8.75
68841;PMS5003;55849;48.482;2.332;2023-04-25T12:14:23;20.25;16.00;11.00
68841;PMS5003;55849;48.482;2.332;2023-04-25T12:17:28;13.00;12.50;8.00
68841;PMS5003;55849;48.482;2.332;2023-04-25T12:20:31;12.75;11.50;8.00
68841;PMS5003;55849;48.482;2.332;2023-04-25T12:23:34;14.50;11.75;7.75
68841;PMS5003;55849;48.482;2.332;2023-04-25T12:26:48;15.00;9.50;7.00
68841;PMS5003;55849;48.482;2.332;2023-04-25T12:29:52;11.75;11.75;7.25
68841;PMS5003;55849;48.482;2.332;2023-04-25T12:32:54;9.25;8.25;6.00
68841;PMS5003;55849;48.482;2.332;2023-04-25T12:35:56;10.00;9.25;7.00
68841;PMS5003;55849;48.482;2.332;2023-04-25T12:39:00;11.75;11.75;6.75
68841;PMS5003;55849;48.482;2.332;2023-04-25T12:42:04;10.50;10.50;6.50
68841;PMS5003;55849;48.482;2.332;2023-04-25T12:45:08;11.50;10.25;7.00
68841;PMS5003;55849;48.482;2.332;2023-04-25T12:48:09;8.25;8.00;6.00
68841;PMS5003;55849;48.482;2.332;2023-04-25T12:51:11;7.75;7.00;4.50
68841;PMS5003;55849;48.482;2.332;2023-04-25T12:54:14;10.00;8.75;6.50
68841;PMS5003;55849;48.482;2.332;2023-04-25T12:57:16;8.25;8.25;5.25
68841;PMS5003;55849;48.482;2.332;2023-04-25T13:00:18;11.00;10.00;6.25
68841;PMS5003;55849;48.482;2.332;2023-04-25T13:03:20;11.25;8.50;6.00
68841;PMS5003;55849;48.482;2.332;2023-04-25T13:06:22;8.25;7.25;4.75
68841;PMS5003;55849;48.482;2.332;2023-04-25T13:09:26;11.00;10.00;6.25
68841;PMS5003;55849;48.482;2.332;2023-04-25T13:12:27;12.50;10.25;6.00
68841;PMS5003;55849;48.482;2.332;2023-04-25T13:15:29;6.00;5.75;4.00
68841;PMS5003;55849;48.482;2.332;2023-04-25T13:18:30;7.00;6.00;4.50
68841;PMS5003;55849;48.482;2.332;2023-04-25T13:21:33;9.75;8.25;5.75
68841;PMS5003;55849;48.482;2.332;2023-04-25T13:24:36;9.75;9.50;6.00
68841;PMS5003;55849;48.482;2.332;2023-04-25T13:27:38;9.50;8.00;6.00
68841;PMS5003;55849;48.482;2.332;2023-04-25T13:30:40;10.25;8.00;6.25
68841;PMS5003;55849;48.482;2.332;2023-04-25T13:33:42;14.25;9.00;6.00
68841;PMS5003;55849;48.482;2.332;2023-04-25T13:36:44;11.50;7.50;4.00
68841;PMS5003;55849;48.482;2.332;2023-04-25T13:39:47;11.00;10.25;5.75
68841;PMS5003;55849;48.482;2.332;2023-04-25T13:42:49;9.00;7.00;6.00
68841;PMS5003;55849;48.482;2.332;2023-04-25T13:45:51;6.50;6.50;5.00
68841;PMS5003;55849;48.482;2.332;2023-04-25T13:48:52;9.00;9.00;6.25
68841;PMS5003;55849;48.482;2.332;2023-04-25T13:51:54;9.25;8.25;6.00
68841;PMS5003;55849;48.482;2.332;2023-04-25T13:54:57;6.00;6.00;4.75
68841;PMS5003;55849;48.482;2.332;2023-04-25T13:57:59;7.25;6.50;5.50
68841;PMS5003;55849;48.482;2.332;2023-04-25T14:01:07;9.00;8.75;6.00
68841;PMS5003;55849;48.482;2.332;2023-04-25T14:04:08;8.25;7.50;5.00
68841;PMS5003;55849;48.482;2.332;2023-04-25T14:07:10;8.00;7.50;4.75
68841;PMS5003;55849;48.482;2.332;2023-04-25T14:10:13;8.50;7.00;4.00
68841;PMS5003;55849;48.482;2.332;2023-04-25T14:13:15;7.50;6.50;5.25
68841;PMS5003;55849;48.482;2.332;2023-04-25T14:16:17;9.00;8.50;6.00
68841;PMS5003;55849;48.482;2.332;2023-04-25T14:19:19;10.75;8.00;5.75
68841;PMS5003;55849;48.482;2.332;2023-04-25T14:22:20;8.50;5.00;4.00
68841;PMS5003;55849;48.482;2.332;2023-04-25T14:25:23;12.00;7.25;4.00
68841;PMS5003;55849;48.482;2.332;2023-04-25T14:28:25;7.00;5.25;5.00
68841;PMS5003;55849;48.482;2.332;2023-04-25T14:31:27;8.75;8.75;5.00
68841;PMS5003;55849;48.482;2.332;2023-04-25T14:34:28;9.75;6.75;4.25
68841;PMS5003;55849;48.482;2.332;2023-04-25T14:37:30;9.75;6.00;4.25
68841;PMS5003;55849;48.482;2.332;2023-04-25T14:40:33;8.75;7.75;4.75
68841;PMS5003;55849;48.482;2.332;2023-04-25T14:43:35;11.25;8.00;5.00
68841;PMS5003;55849;48.482;2.332;2023-04-25T14:46:36;10.00;7.75;5.00
68841;PMS5003;55849;48.482;2.332;2023-04-25T14:49:38;8.00;7.75;4.25
68841;PMS5003;55849;48.482;2.332;2023-04-25T14:52:40;8.25;8.00;5.50
68841;PMS5003;55849;48.482;2.332;2023-04-25T14:55:43;10.50;7.25;4.75
68841;PMS5003;55849;48.482;2.332;2023-04-25T14:58:45;6.25;6.00;4.00
68841;PMS5003;55849;48.482;2.332;2023-04-25T15:01:46;7.25;7.25;5.00
68841;PMS5003;55849;48.482;2.332;2023-04-25T15:04:48;8.75;8.75;5.50
68841;PMS5003;55849;48.482;2.332;2023-04-25T15:07:49;10.00;7.50;5.25
68841;PMS5003;55849;48.482;2.332;2023-04-25T15:10:53;8.25;6.50;4.25
68841;PMS5003;55849;48.482;2.332;2023-04-25T15:13:54;10.75;9.00;6.00
68841;PMS5003;55849;48.482;2.332;2023-04-25T15:16:56;8.75;7.25;5.25
68841;PMS5003;55849;48.482;2.332;2023-04-25T15:19:57;6.75;6.50;5.00
68841;PMS5003;55849;48.482;2.332;2023-04-25T15:22:59;9.75;6.00;3.25
68841;PMS5003;55849;48.482;2.332;2023-04-25T15:26:04;8.75;6.50;4.50
68841;PMS5003;55849;48.482;2.332;2023-04-25T15:29:06;7.75;6.00;3.75
68841;PMS5003;55849;48.482;2.332;2023-04-25T15:32:07;7.50;7.50;4.50
68841;PMS5003;55849;48.482;2.332;2023-04-25T15:35:10;6.00;6.00;4.25
68841;PMS5003;55849;48.482;2.332;2023-04-25T15:38:12;17.50;17.25;10.75
68841;PMS5003;55849;48.482;2.332;2023-04-25T15:41:15;9.00;8.25;5.75
68841;PMS5003;55849;48.482;2.332;2023-04-25T15:44:18;7.25;6.00;5.50
68841;PMS5003;55849;48.482;2.332;2023-04-25T15:47:19;6.75;5.75;4.25
68841;PMS5003;55849;48.482;2.332;2023-04-25T15:50:21;10.00;7.50;5.50
68841;PMS5003;55849;48.482;2.332;2023-04-25T15:53:23;8.50;8.50;6.00
68841;PMS5003;55849;48.482;2.332;2023-04-25T15:56:26;11.75;9.00;6.25
68841;PMS5003;55849;48.482;2.332;2023-04-25T15:59:28;6.25;6.00;4.00
68841;PMS5003;55849;48.482;2.332;2023-04-25T16:02:29;9.75;7.50;5.75
68841;PMS5003;55849;48.482;2.332;2023-04-25T16:05:31;11.00;10.00;6.25
68841;PMS5003;55849;48.482;2.332;2023-04-25T16:08:33;9.50;8.00;6.25
68841;PMS5003;55849;48.482;2.332;2023-04-25T16:11:36;8.75;8.25;6.00
68841;PMS5003;55849;48.482;2.332;2023-04-25T16:14:38;8.25;8.25;5.50
68841;PMS5003;55849;48.482;2.332;2023-04-25T16:17:39;8.50;8.00;5.25
68841;PMS5003;55849;48.482;2.332;2023-04-25T16:20:41;9.75;8.00;6.00
68841;PMS5003;55849;48.482;2.332;2023-04-25T16:23:43;7.25;7.00;4.25
68841;PMS5003;55849;48.482;2.332;2023-04-25T16:26:46;8.00;7.25;4.00
68841;PMS5003;55849;48.482;2.332;2023-04-25T16:29:47;8.75;8.75;6.75
68841;PMS5003;55849;48.482;2.332;2023-04-25T16:32:50;7.50;7.50;4.50
68841;PMS5003;55849;48.482;2.332;2023-04-25T16:35:52;9.25;7.00;4.75
68841;PMS5003;55849;48.482;2.332;2023-04-25T16:38:53;8.75;7.75;6.00
68841;PMS5003;55849;48.482;2.332;2023-04-25T16:41:56;9.25;8.00;5.50
68841;PMS5003;55849;48.482;2.332;2023-04-25T16:44:58;7.00;7.00;5.00
68841;PMS5003;55849;48.482;2.332;2023-04-25T16:48:00;6.00;6.00;4.00
68841;PMS5003;55849;48.482;2.332;2023-04-25T16:51:01;9.25;8.75;5.00
68841;PMS5003;55849;48.482;2.332;2023-04-25T16:54:03;9.75;5.50;4.00
68841;PMS5003;55849;48.482;2.332;2023-04-25T16:57:06;6.75;6.75;4.00
68841;PMS5003;55849;48.482;2.332;2023-04-25T17:00:10;9.50;8.00;4.25
68841;PMS5003;55849;48.482;2.332;2023-04-25T17:03:12;8.00;5.25;3.50
68841;PMS5003;55849;48.482;2.332;2023-04-25T17:06:14;7.25;5.75;4.00
68841;PMS5003;55849;48.482;2.332;2023-04-25T17:09:16;8.00;7.25;5.25
68841;PMS5003;55849;48.482;2.332;2023-04-25T17:12:19;8.25;7.50;5.25
68841;PMS5003;55849;48.482;2.332;2023-04-25T17:15:21;8.25;7.25;4.00
68841;PMS5003;55849;48.482;2.332;2023-04-25T17:18:22;10.75;8.75;5.25
68841;PMS5003;55849;48.482;2.332;2023-04-25T17:21:25;7.00;7.00;5.00
68841;PMS5003;55849;48.482;2.332;2023-04-25T17:24:26;7.75;6.25;4.00
68841;PMS5003;55849;48.482;2.332;2023-04-25T17:27:29;7.75;7.25;4.00
68841;PMS5003;55849;48.482;2.332;2023-04-25T17:30:32;7.00;5.50;4.00
68841;PMS5003;55849;48.482;2.332;2023-04-25T17:33:33;7.00;7.00;5.25
68841;PMS5003;55849;48.482;2.332;2023-04-25T17:36:35;8.00;7.00;4.00
68841;PMS5003;55849;48.482;2.332;2023-04-25T17:39:36;8.50;7.75;4.00
68841;PMS5003;55849;48.482;2.332;2023-04-25T17:42:39;8.00;8.00;6.50
68841;PMS5003;55849;48.482;2.332;2023-04-25T17:45:42;6.00;6.00;4.75
68841;PMS5003;55849;48.482;2.332;2023-04-25T17:48:43;5.75;5.50;4.50
68841;PMS5003;55849;48.482;2.332;2023-04-25T17:51:45;6.75;6.50;4.50
68841;PMS5003;55849;48.482;2.332;2023-04-25T17:54:46;8.00;7.25;4.00
68841;PMS5003;55849;48.482;2.332;2023-04-25T17:57:49;11.75;9.00;6.00
68841;PMS5003;55849;48.482;2.332;2023-04-25T18:00:51;10.75;7.75;5.75
68841;PMS5003;55849;48.482;2.332;2023-04-25T18:03:53;8.25;8.25;6.00
68841;PMS5003;55849;48.482;2.332;2023-04-25T18:06:55;9.00;7.75;5.25
68841;PMS5003;55849;48.482;2.332;2023-04-25T18:09:57;13.00;9.75;6.00
68841;PMS5003;55849;48.482;2.332;2023-04-25T18:13:00;11.75;7.50;5.50
68841;PMS5003;55849;48.482;2.332;2023-04-25T18:16:02;9.50;7.25;4.75
68841;PMS5003;55849;48.482;2.332;2023-04-25T18:19:04;8.00;8.00;5.50
68841;PMS5003;55849;48.482;2.332;2023-04-25T18:22:10;9.25;9.00;5.50
68841;PMS5003;55849;48.482;2.332;2023-04-25T18:25:12;9.00;6.50;5.25
68841;PMS5003;55849;48.482;2.332;2023-04-25T18:28:16;9.75;8.25;5.00
68841;PMS5003;55849;48.482;2.332;2023-04-25T18:31:18;7.75;7.75;5.75
68841;PMS5003;55849;48.482;2.332;2023-04-25T18:34:24;7.25;7.25;5.25
68841;PMS5003;55849;48.482;2.332;2023-04-25T18:37:25;11.25;9.00;6.00
68841;PMS5003;55849;48.482;2.332;2023-04-25T18:40:27;9.00;8.00;5.75
68841;PMS5003;55849;48.482;2.332;2023-04-25T18:43:32;9.75;7.25;4.75
68841;PMS5003;55849;48.482;2.332;2023-04-25T18:46:33;7.75;7.25;4.50
68841;PMS5003;55849;48.482;2.332;2023-04-25T18:49:36;9.25;7.25;5.50
68841;PMS5003;55849;48.482;2.332;2023-04-25T18:52:37;8.00;7.00;6.00
68841;PMS5003;55849;48.482;2.332;2023-04-25T18:55:40;9.75;9.00;5.75
68841;PMS5003;55849;48.482;2.332;2023-04-25T18:58:43;8.75;8.75;6.25
68841;PMS5003;55849;48.482;2.332;2023-04-25T19:01:45;9.50;9.25;6.00
68841;PMS5003;55849;48.482;2.332;2023-04-25T19:04:46;10.00;9.00;6.00
68841;PMS5003;55849;48.482;2.332;2023-04-25T19:07:48;9.75;9.75;8.00
68841;PMS5003;55849;48.482;2.332;2023-04-25T19:10:50;9.50;9.50;7.00
68841;PMS5003;55849;48.482;2.332;2023-04-25T19:13:54;10.00;10.00;7.00
68841;PMS5003;55849;48.482;2.332;2023-04-25T19:16:55;9.75;8.75;6.00
68841;PMS5003;55849;48.482;2.332;2023-04-25T19:19:58;12.75;10.00;7.00
68841;PMS5003;55849;48.482;2.332;2023-04-25T19:23:00;14.50;9.50;7.00
68841;PMS5003;55849;48.482;2.332;2023-04-25T19:26:02;9.00;9.00;5.50
68841;PMS5003;55849;48.482;2.332;2023-04-25T19:29:06;8.25;8.00;6.00
68841;PMS5003;55849;48.482;2.332;2023-04-25T19:32:08;9.50;9.25;6.25
68841;PMS5003;55849;48.482;2.332;2023-04-25T19:35:10;11.50;10.00;7.00
68841;PMS5003;55849;48.482;2.332;2023-04-25T19:38:12;8.00;7.25;6.00
68841;PMS5003;55849;48.482;2.332;2023-04-25T19:41:15;12.50;7.25;6.00
68841;PMS5003;55849;48.482;2.332;2023-04-25T19:44:18;10.00;7.50;5.00
68841;PMS5003;55849;48.482;2.332;2023-04-25T19:47:20;8.25;7.75;6.25
68841;PMS5003;55849;48.482;2.332;2023-04-25T19:50:22;10.75;6.00;4.00
68841;PMS5003;55849;48.482;2.332;2023-04-25T19:53:24;9.25;6.25;4.00
68841;PMS5003;55849;48.482;2.332;2023-04-25T19:56:26;8.00;6.00;4.50
68841;PMS5003;55849;48.482;2.332;2023-04-25T19:59:29;6.75;5.50;4.00
68841;PMS5003;55849;48.482;2.332;2023-04-25T20:02:31;8.00;7.00;5.00
68841;PMS5003;55849;48.482;2.332;2023-04-25T20:05:33;8.50;6.00;4.50
68841;PMS5003;55849;48.482;2.332;2023-04-25T20:08:34;6.00;4.00;4.00
68841;PMS5003;55849;48.482;2.332;2023-04-25T20:11:36;7.25;6.75;5.00
68841;PMS5003;55849;48.482;2.332;2023-04-25T20:14:39;6.50;6.50;4.00
68841;PMS5003;55849;48.482;2.332;2023-04-25T20:17:41;8.00;8.00;5.25
68841;PMS5003;55849;48.482;2.332;2023-04-25T20:20:42;7.75;6.00;4.75
68841;PMS5003;55849;48.482;2.332;2023-04-25T20:23:44;7.00;6.00;4.50
68841;PMS5003;55849;48.482;2.332;2023-04-25T20:26:46;7.75;7.00;5.50
68841;PMS5003;55849;48.482;2.332;2023-04-25T20:29:50;5.75;5.75;4.00
68841;PMS5003;55849;48.482;2.332;2023-04-25T20:32:51;8.25;7.25;4.25
68841;PMS5003;55849;48.482;2.332;2023-04-25T20:35:53;9.00;5.00;3.75
68841;PMS5003;55849;48.482;2.332;2023-04-25T20:38:55;7.25;7.25;4.50
68841;PMS5003;55849;48.482;2.332;2023-04-25T20:41:57;7.00;6.00;4.25
68841;PMS5003;55849;48.482;2.332;2023-04-25T20:45:00;11.00;7.25;5.00
68841;PMS5003;55849;48.482;2.332;2023-04-25T20:48:06;8.00;7.50;5.00
68841;PMS5003;55849;48.482;2.332;2023-04-25T20:51:07;8.00;7.00;4.00
68841;PMS5003;55849;48.482;2.332;2023-04-25T20:54:09;10.75;5.00;3.25
68841;PMS5003;55849;48.482;2.332;2023-04-25T20:57:12;7.75;6.25;5.00
68841;PMS5003;55849;48.482;2.332;2023-04-25T21:00:15;8.00;6.00;4.25
68841;PMS5003;55849;48.482;2.332;2023-04-25T21:03:18;9.00;6.75;5.00
68841;PMS5003;55849;48.482;2.332;2023-04-25T21:06:21;7.00;4.75;4.00
68841;PMS5003;55849;48.482;2.332;2023-04-25T21:09:22;6.00;6.00;4.00
68841;PMS5003;55849;48.482;2.332;2023-04-25T21:12:24;6.00;6.00;4.00
68841;PMS5003;55849;48.482;2.332;2023-04-25T21:15:27;6.25;6.25;3.75
68841;PMS5003;55849;48.482;2.332;2023-04-25T21:18:29;6.00;6.00;3.00
68841;PMS5003;55849;48.482;2.332;2023-04-25T21:21:31;7.00;5.00;3.25
68841;PMS5003;55849;48.482;2.332;2023-04-25T21:24:32;8.75;7.50;5.00
68841;PMS5003;55849;48.482;2.332;2023-04-25T21:27:34;9.25;8.75;4.75
68841;PMS5003;55849;48.482;2.332;2023-04-25T21:30:38;4.00;4.00;3.25
68841;PMS5003;55849;48.482;2.332;2023-04-25T21:33:41;5.25;5.25;3.50
68841;PMS5003;55849;48.482;2.332;2023-04-25T21:36:42;9.50;7.00;5.00
68841;PMS5003;55849;48.482;2.332;2023-04-25T21:39:44;6.75;6.00;4.00
68841;PMS5003;55849;48.482;2.332;2023-04-25T21:42:47;2.75;1.00;0.00
68841;PMS5003;55849;48.482;2.332;2023-04-25T21:45:53;6.75;6.00;4.00
68841;PMS5003;55849;48.482;2.332;2023-04-25T21:48:55;8.00;6.75;4.00
68841;PMS5003;55849;48.482;2.332;2023-04-25T21:51:56;8.25;6.00;4.00
68841;PMS5003;55849;48.482;2.332;2023-04-25T21:54:58;9.50;8.75;4.75
68841;PMS5003;55849;48.482;2.332;2023-04-25T21:58:00;10.00;8.00;6.00
68841;PMS5003;55849;48.482;2.332;2023-04-25T22:01:03;10.75;6.50;3.50
68841;PMS5003;55849;48.482;2.332;2023-04-25T22:04:05;7.50;6.00;4.50
68841;PMS5003;55849;48.482;2.332;2023-04-25T22:07:06;8.25;6.75;4.00
68841;PMS5003;55849;48.482;2.332;2023-04-25T22:10:08;5.50;5.50;4.00
68841;PMS5003;55849;48.482;2.332;2023-04-25T22:13:11;8.00;5.25;3.25
68841;PMS5003;55849;48.482;2.332;2023-04-25T22:16:15;9.00;8.00;4.50
68841;PMS5003;55849;48.482;2.332;2023-04-25T22:19:17;8.00;6.00;4.00
68841;PMS5003;55849;48.482;2.332;2023-04-25T22:22:18;7.50;7.50;4.25
68841;PMS5003;55849;48.482;2.332;2023-04-25T22:25:20;8.00;7.50;5.00
68841;PMS5003;55849;48.482;2.332;2023-04-25T22:28:22;8.00;8.00;7.00
68841;PMS5003;55849;48.482;2.332;2023-04-25T22:31:25;8.50;8.00;4.25
68841;PMS5003;55849;48.482;2.332;2023-04-25T22:34:28;9.25;7.75;5.00
68841;PMS5003;55849;48.482;2.332;2023-04-25T22:37:29;13.50;8.50;5.00
68841;PMS5003;55849;48.482;2.332;2023-04-25T22:40:31;11.50;6.75;2.25
68841;PMS5003;55849;48.482;2.332;2023-04-25T22:43:32;9.75;7.75;4.25
68841;PMS5003;55849;48.482;2.332;2023-04-25T22:46:35;8.75;8.75;5.00
68841;PMS5003;55849;48.482;2.332;2023-04-25T22:49:37;6.50;6.50;4.00
68841;PMS5003;55849;48.482;2.332;2023-04-25T22:52:39;8.00;6.50;4.25
68841;PMS5003;55849;48.482;2.332;2023-04-25T22:55:41;4.00;4.00;3.00
68841;PMS5003;55849;48.482;2.332;2023-04-25T22:58:43;9.00;8.75;6.50
68841;PMS5003;55849;48.482;2.332;2023-04-25T23:01:46;7.00;5.50;3.00
68841;PMS5003;55849;48.482;2.332;2023-04-25T23:04:48;5.50;5.50;3.50
68841;PMS5003;55849;48.482;2.332;2023-04-25T23:07:52;16.50;12.50;7.25
68841;PMS5003;55849;48.482;2.332;2023-04-25T23:10:53;3.25;3.25;1.75
68841;PMS5003;55849;48.482;2.332;2023-04-25T23:13:55;17.50;14.00;9.00
68841;PMS5003;55849;48.482;2.332;2023-04-25T23:16:59;8.25;8.25;6.00
68841;PMS5003;55849;48.482;2.332;2023-04-25T23:20:01;8.50;6.00;4.00
68841;PMS5003;55849;48.482;2.332;2023-04-25T23:23:06;14.25;13.50;7.25
68841;PMS5003;55849;48.482;2.332;2023-04-25T23:26:07;12.25;6.50;4.50
68841;PMS5003;55849;48.482;2.332;2023-04-25T23:29:09;7.00;7.00;6.00
68841;PMS5003;55849;48.482;2.332;2023-04-25T23:32:12;8.00;7.00;4.00
68841;PMS5003;55849;48.482;2.332;2023-04-25T23:35:14;9.25;7.00;5.75
68841;PMS5003;55849;48.482;2.332;2023-04-25T23:38:15;9.00;7.50;4.75
68841;PMS5003;55849;48.482;2.332;2023-04-25T23:41:17;12.50;8.00;7.00
68841;PMS5003;55849;48.482;2.332;2023-04-25T23:44:19;15.50;14.75;9.00
68841;PMS5003;55849;48.482;2.332;2023-04-25T23:47:22;10.50;9.00;7.00
68841;PMS5003;55849;48.482;2.332;2023-04-25T23:50:24;8.75;8.75;6.00
68841;PMS5003;55849;48.482;2.332;2023-04-25T23:53:25;20.00;19.50;12.50
68841;PMS5003;55849;48.482;2.332;2023-04-25T23:56:27;17.00;13.25;10.25
68841;PMS5003;55849;48.482;2.332;2023-04-25T23:59:29;6.00;4.00;3.25
